createdAt,value
2017-11-26T00:01:27.084Z,76.53
2017-11-26T00:03:57.142Z,76.63
2017-11-26T00:06:27.749Z,76.58
2017-11-26T00:08:56.753Z,77.95
2017-11-26T00:11:27.455Z,78.81
2017-11-26T00:13:57.824Z,78.04
2017-11-26T00:16:27.302Z,79.47
2017-11-26T00:18:57.488Z,79.62
2017-11-26T00:21:27.512Z,80.03
2017-11-26T00:23:58.387Z,80.08
2017-11-26T00:26:27.870Z,79.96
2017-11-26T00:28:57.496Z,78.86
2017-11-26T00:31:27.740Z,79.28
2017-11-26T00:33:57.734Z,80.23
2017-11-26T00:36:28.499Z,80.08
2017-11-26T00:38:57.997Z,79.26
2017-11-26T00:41:26.935Z,78.12
2017-11-26T00:43:55.734Z,77.38
2017-11-26T00:46:24.520Z,76.12
2017-11-26T00:48:54.110Z,75.89
2017-11-26T00:51:22.848Z,75.62
2017-11-26T00:53:51.863Z,76.15
2017-11-26T00:56:20.689Z,76.56
2017-11-26T00:58:49.678Z,76.40
2017-11-26T01:01:18.498Z,73.43
2017-11-26T01:03:47.160Z,74.69
2017-11-26T01:06:16.855Z,74.89
2017-11-26T01:08:45.588Z,75.18
2017-11-26T01:11:14.469Z,75.47
2017-11-26T01:13:43.444Z,75.16
2017-11-26T01:16:12.276Z,76.11
2017-11-26T01:18:41.764Z,77.37
2017-11-26T01:21:10.488Z,77.51
2017-11-26T01:23:39.586Z,78.27
2017-11-26T01:26:09.872Z,77.95
2017-11-26T01:28:38.541Z,78.13
2017-11-26T01:31:07.434Z,77.44
2017-11-26T01:33:36.465Z,77.67
2017-11-26T01:36:05.404Z,76.94
2017-11-26T01:38:34.394Z,77.61
2017-11-26T01:41:03.241Z,77.63
2017-11-26T01:43:33.176Z,78.28
2017-11-26T01:46:02.088Z,78.27
2017-11-26T01:48:30.733Z,78.96
2017-11-26T01:51:00.475Z,78.40
2017-11-26T01:53:30.783Z,79.25
2017-11-26T01:56:00.855Z,78.67
2017-11-26T01:58:30.611Z,78.04
2017-11-26T02:00:59.440Z,77.51
2017-11-26T02:03:28.264Z,75.14
2017-11-26T02:05:57.232Z,76.25
2017-11-26T02:08:26.003Z,77.65
2017-11-26T02:10:54.736Z,76.52
2017-11-26T02:13:23.656Z,77.03
2017-11-26T02:15:52.764Z,77.45
2017-11-26T02:18:21.696Z,76.81
2017-11-26T02:20:50.663Z,78.15
2017-11-26T02:23:20.071Z,76.52
2017-11-26T02:25:48.864Z,78.29
2017-11-26T02:28:17.805Z,77.93
2017-11-26T02:30:46.633Z,77.14
2017-11-26T02:33:27.065Z,76.58
2017-11-26T02:38:54.329Z,77.70
2017-11-26T02:41:23.245Z,77.67
2017-11-26T02:43:52.702Z,77.23
2017-11-26T02:46:21.546Z,76.97
2017-11-26T02:48:51.056Z,78.35
2017-11-26T02:51:19.998Z,78.29
2017-11-26T02:53:48.791Z,78.25
2017-11-26T02:56:18.490Z,78.47
2017-11-26T02:58:47.998Z,79.03
2017-11-26T03:01:17.004Z,78.98
2017-11-26T03:03:50.644Z,79.58
2017-11-26T03:06:19.492Z,80.94
2017-11-26T03:08:48.900Z,79.53
2017-11-26T03:11:17.766Z,79.15
2017-11-26T03:13:46.754Z,80.92
2017-11-26T03:16:15.964Z,79.82
2017-11-26T03:18:44.798Z,78.67
2017-11-26T03:21:13.545Z,78.19
2017-11-26T03:23:42.282Z,79.03
2017-11-26T03:26:11.020Z,78.26
2017-11-26T03:28:39.912Z,77.85
2017-11-26T03:31:08.695Z,78.21
2017-11-26T03:33:38.211Z,78.48
2017-11-26T03:36:07.604Z,78.84
2017-11-26T03:38:37.117Z,80.08
2017-11-26T03:41:06.167Z,78.96
2017-11-26T03:43:35.142Z,77.87
2017-11-26T03:46:04.950Z,78.50
2017-11-26T03:48:34.882Z,79.70
2017-11-26T03:51:03.704Z,80.20
2017-11-26T03:53:32.645Z,80.35
2017-11-26T03:56:02.114Z,81.10
2017-11-26T03:58:31.024Z,80.08
2017-11-26T04:00:59.933Z,80.96
2017-11-26T04:03:29.437Z,80.55
2017-11-26T04:05:59.020Z,79.63
2017-11-26T04:08:28.287Z,79.78
2017-11-26T04:10:56.969Z,78.74
2017-11-26T04:13:25.965Z,78.83
2017-11-26T04:15:54.808Z,79.33
2017-11-26T04:18:23.632Z,79.21
2017-11-26T04:20:52.501Z,78.48
2017-11-26T04:23:21.221Z,78.12
2017-11-26T04:25:50.293Z,79.96
2017-11-26T04:28:19.013Z,79.85
2017-11-26T04:30:47.866Z,80.02
2017-11-26T04:33:16.588Z,78.81
2017-11-26T04:35:45.334Z,78.40
2017-11-26T04:38:14.799Z,79.59
2017-11-26T04:40:43.565Z,78.67
2017-11-26T04:43:12.467Z,78.52
2017-11-26T04:45:41.249Z,78.55
2017-11-26T04:48:11.016Z,78.37
2017-11-26T04:50:39.815Z,77.18
2017-11-26T04:53:08.588Z,76.43
2017-11-26T04:55:38.528Z,77.25
2017-11-26T04:58:07.740Z,76.45
2017-11-26T05:00:36.555Z,77.67
2017-11-26T05:03:05.410Z,77.86
2017-11-26T05:05:34.358Z,77.20
2017-11-26T05:08:03.397Z,77.92
2017-11-26T05:10:32.270Z,76.04
2017-11-26T05:13:01.670Z,78.01
2017-11-26T05:15:31.013Z,77.48
2017-11-26T05:18:00.471Z,78.54
2017-11-26T05:20:29.911Z,79.31
2017-11-26T05:22:58.938Z,79.41
2017-11-26T05:25:27.940Z,79.95
2017-11-26T05:27:56.706Z,78.91
2017-11-26T05:30:25.405Z,78.87
2017-11-26T05:32:54.264Z,79.23
2017-11-26T05:35:22.965Z,79.47
2017-11-26T05:37:51.656Z,79.96
2017-11-26T05:40:20.663Z,80.56
2017-11-26T05:42:49.877Z,79.27
2017-11-26T05:45:19.473Z,77.29
2017-11-26T05:47:48.165Z,77.70
2017-11-26T05:50:17.693Z,76.32
2017-11-26T05:52:46.582Z,77.39
2017-11-26T05:55:15.292Z,76.82
2017-11-26T05:57:44.856Z,77.19
2017-11-26T06:00:13.662Z,78.94
2017-11-26T06:02:42.469Z,78.57
2017-11-26T06:05:11.908Z,78.71
2017-11-26T06:07:41.195Z,77.72
2017-11-26T06:10:11.781Z,77.25
2017-11-26T06:12:41.769Z,76.99
2017-11-26T06:15:11.410Z,77.75
2017-11-26T06:17:42.375Z,77.54
2017-11-26T06:20:11.343Z,78.21
2017-11-26T06:22:40.061Z,77.42
2017-11-26T06:25:08.986Z,77.43
2017-11-26T06:27:38.024Z,77.94
2017-11-26T06:30:07.155Z,77.81
2017-11-26T06:32:35.849Z,77.85
2017-11-26T06:35:04.763Z,79.17
2017-11-26T06:37:33.610Z,78.36
2017-11-26T06:40:02.466Z,78.69
2017-11-26T06:42:31.213Z,79.58
2017-11-26T06:44:59.865Z,80.16
2017-11-26T06:47:28.642Z,80.27
2017-11-26T06:49:57.391Z,78.59
2017-11-26T06:52:26.079Z,78.46
2017-11-26T06:54:54.895Z,78.89
2017-11-26T06:57:23.568Z,79.88
2017-11-26T06:59:52.353Z,79.61
2017-11-26T07:02:21.903Z,79.77
2017-11-26T07:04:51.423Z,78.00
2017-11-26T07:07:20.964Z,79.18
2017-11-26T07:09:49.710Z,77.72
2017-11-26T07:12:18.795Z,78.20
2017-11-26T07:14:47.633Z,78.39
2017-11-26T07:17:17.374Z,78.16
2017-11-26T07:19:46.422Z,78.06
2017-11-26T07:22:15.280Z,78.06
2017-11-26T07:24:44.264Z,78.85
2017-11-26T07:27:13.039Z,79.84
2017-11-26T07:29:44.108Z,78.26
2017-11-26T07:32:13.352Z,78.18
2017-11-26T07:34:44.551Z,78.53
2017-11-26T07:37:13.384Z,78.26
2017-11-26T07:39:44.173Z,78.81
2017-11-26T07:42:13.722Z,78.03
2017-11-26T07:44:42.489Z,77.26
2017-11-26T07:47:11.225Z,76.76
2017-11-26T07:49:41.084Z,76.98
2017-11-26T07:52:09.892Z,77.91
2017-11-26T07:54:41.639Z,78.33
2017-11-26T07:57:10.444Z,78.67
2017-11-26T07:59:39.091Z,79.24
2017-11-26T08:02:08.196Z,78.04
2017-11-26T08:04:37.011Z,79.29
2017-11-26T08:07:05.756Z,78.49
2017-11-26T08:09:34.607Z,78.53
2017-11-26T08:12:04.542Z,77.59
2017-11-26T08:14:34.176Z,77.87
2017-11-26T08:17:02.835Z,77.59
2017-11-26T08:19:31.555Z,77.70
2017-11-26T08:22:00.477Z,78.84
2017-11-26T08:24:29.092Z,78.70
2017-11-26T08:26:58.053Z,77.81
2017-11-26T08:29:26.688Z,79.01
2017-11-26T08:31:55.395Z,77.58
2017-11-26T08:34:24.315Z,77.64
2017-11-26T08:36:53.885Z,78.13
2017-11-26T08:39:22.549Z,79.50
2017-11-26T08:41:51.290Z,78.21
2017-11-26T08:44:19.953Z,77.79
2017-11-26T08:46:48.676Z,78.11
2017-11-26T08:49:17.669Z,77.10
2017-11-26T08:51:46.407Z,78.41
2017-11-26T08:54:15.321Z,77.72
2017-11-26T08:56:44.307Z,77.33
2017-11-26T08:59:13.163Z,77.35
2017-11-26T09:01:42.803Z,78.22
2017-11-26T09:04:11.558Z,77.15
2017-11-26T09:06:40.303Z,76.95
2017-11-26T09:09:09.012Z,77.59
2017-11-26T09:11:37.687Z,76.89
2017-11-26T09:14:06.498Z,77.55
2017-11-26T09:16:35.435Z,77.53
2017-11-26T09:19:04.061Z,78.18
2017-11-26T09:21:32.958Z,78.88
2017-11-26T09:24:01.860Z,79.01
2017-11-26T09:26:30.514Z,77.47
2017-11-26T09:28:59.260Z,75.29
2017-11-26T09:31:28.746Z,74.54
2017-11-26T09:33:57.826Z,73.24
2017-11-26T09:36:26.551Z,73.84
2017-11-26T09:38:55.959Z,75.09
2017-11-26T09:41:24.747Z,74.66
2017-11-26T09:43:53.561Z,70.36
2017-11-26T09:46:22.515Z,69.04
2017-11-26T09:48:51.375Z,67.80
2017-11-26T09:51:21.175Z,68.76
2017-11-26T09:53:49.800Z,70.10
2017-11-26T09:56:19.451Z,67.60
2017-11-26T09:58:48.213Z,63.72
2017-11-26T10:01:17.386Z,61.84
2017-11-26T10:03:47.965Z,63.29
2017-11-26T10:06:17.388Z,59.34
2017-11-26T10:08:46.206Z,58.79
2017-11-26T10:11:15.747Z,61.91
2017-11-26T10:13:44.495Z,61.75
2017-11-26T10:16:13.190Z,62.37
2017-11-26T10:18:41.828Z,58.06
2017-11-26T10:21:10.652Z,55.46
2017-11-26T10:23:39.489Z,55.17
2017-11-26T10:26:08.280Z,56.56
2017-11-26T10:28:37.143Z,53.97
2017-11-26T10:31:06.576Z,53.37
2017-11-26T10:33:36.110Z,57.28
2017-11-26T10:36:06.160Z,56.32
2017-11-26T10:38:34.816Z,53.51
2017-11-26T10:41:03.509Z,54.23
2017-11-26T10:43:32.251Z,53.02
2017-11-26T10:46:01.846Z,51.50
2017-11-26T10:48:30.613Z,52.06
2017-11-26T10:50:59.303Z,55.81
2017-11-26T10:53:28.021Z,56.25
2017-11-26T10:55:56.837Z,53.80
2017-11-26T10:58:25.572Z,51.70
2017-11-26T11:00:54.454Z,51.29
2017-11-26T11:03:23.140Z,51.07
2017-11-26T11:05:52.175Z,48.77
2017-11-26T11:08:20.994Z,51.66
2017-11-26T11:10:50.707Z,50.69
2017-11-26T11:13:19.396Z,50.97
2017-11-26T11:15:49.928Z,51.81
2017-11-26T11:18:19.377Z,50.54
2017-11-26T11:20:48.201Z,46.92
2017-11-26T11:23:17.208Z,47.73
2017-11-26T11:25:46.832Z,46.82
2017-11-26T11:28:15.675Z,50.23
2017-11-26T11:30:44.418Z,50.46
2017-11-26T11:33:14.168Z,47.07
2017-11-26T11:35:43.623Z,46.94
2017-11-26T11:38:12.271Z,47.54
2017-11-26T11:40:41.046Z,47.20
2017-11-26T11:43:09.926Z,47.57
2017-11-26T11:45:38.669Z,49.17
2017-11-26T11:48:07.738Z,47.37
2017-11-26T11:50:36.408Z,45.15
2017-11-26T11:53:05.175Z,43.93
2017-11-26T11:55:33.920Z,45.45
2017-11-26T11:58:02.922Z,44.96
2017-11-26T12:00:31.893Z,45.39
2017-11-26T12:03:00.799Z,44.79
2017-11-26T12:05:29.710Z,41.86
2017-11-26T12:07:58.430Z,43.24
2017-11-26T12:10:28.046Z,42.64
2017-11-26T12:12:56.824Z,41.88
2017-11-26T12:15:25.560Z,42.09
2017-11-26T12:17:54.393Z,41.19
2017-11-26T12:20:24.008Z,41.40
2017-11-26T12:22:52.843Z,38.65
2017-11-26T12:25:21.611Z,38.87
2017-11-26T12:27:50.416Z,39.97
2017-11-26T12:30:20.061Z,42.61
2017-11-26T12:32:48.845Z,40.77
2017-11-26T12:35:17.523Z,43.02
2017-11-26T12:37:46.309Z,41.73
2017-11-26T12:40:15.863Z,44.73
2017-11-26T12:42:44.739Z,43.77
2017-11-26T12:45:13.564Z,44.92
2017-11-26T12:47:42.400Z,43.17
2017-11-26T12:50:11.198Z,43.06
2017-11-26T12:52:40.779Z,44.08
2017-11-26T12:55:09.875Z,43.91
2017-11-26T12:57:38.541Z,43.40
2017-11-26T13:00:07.406Z,45.03
2017-11-26T13:02:37.175Z,43.29
2017-11-26T13:05:06.080Z,43.89
2017-11-26T13:07:34.900Z,43.13
2017-11-26T13:10:03.707Z,44.87
2017-11-26T13:12:32.399Z,43.47
2017-11-26T13:15:01.068Z,44.87
2017-11-26T13:17:29.994Z,44.23
2017-11-26T13:19:59.734Z,42.51
2017-11-26T13:22:28.472Z,43.43
2017-11-26T13:24:57.516Z,43.64
2017-11-26T13:27:26.768Z,43.86
2017-11-26T13:29:55.810Z,42.72
2017-11-26T13:32:24.742Z,42.67
2017-11-26T13:34:54.185Z,44.81
2017-11-26T13:37:24.729Z,44.51
2017-11-26T13:39:54.199Z,44.01
2017-11-26T13:42:25.078Z,43.37
2017-11-26T13:44:55.186Z,42.15
2017-11-26T13:47:24.167Z,42.95
2017-11-26T13:49:52.878Z,43.56
2017-11-26T13:52:22.489Z,43.28
2017-11-26T13:54:51.573Z,42.87
2017-11-26T13:57:20.678Z,42.53
2017-11-26T13:59:49.633Z,40.89
2017-11-26T14:02:18.906Z,41.31
2017-11-26T14:04:48.081Z,44.59
2017-11-26T14:07:16.960Z,42.89
2017-11-26T14:09:45.860Z,42.76
2017-11-26T14:12:15.101Z,40.16
2017-11-26T14:14:44.432Z,41.74
2017-11-26T14:17:13.254Z,40.67
2017-11-26T14:19:41.929Z,41.09
2017-11-26T14:22:10.749Z,42.22
2017-11-26T14:24:40.165Z,41.22
2017-11-26T14:27:08.980Z,41.99
2017-11-26T14:29:37.676Z,41.52
2017-11-26T14:32:06.613Z,42.29
2017-11-26T14:34:35.450Z,42.30
2017-11-26T14:37:04.400Z,41.33
2017-11-26T14:39:33.128Z,42.69
2017-11-26T14:42:01.975Z,41.81
2017-11-26T14:44:31.101Z,41.82
2017-11-26T14:47:00.079Z,42.76
2017-11-26T14:49:28.790Z,42.01
2017-11-26T14:51:57.485Z,41.39
2017-11-26T14:54:26.758Z,41.65
2017-11-26T14:56:55.460Z,41.65
2017-11-26T14:59:24.276Z,42.04
2017-11-26T15:01:53.019Z,41.88
2017-11-26T15:04:21.765Z,42.48
2017-11-26T15:06:50.801Z,41.79
2017-11-26T15:09:19.846Z,42.74
2017-11-26T15:11:48.670Z,41.78
2017-11-26T15:14:17.433Z,43.02
2017-11-26T15:16:46.231Z,41.43
2017-11-26T15:19:15.162Z,43.60
2017-11-26T15:21:43.837Z,41.75
2017-11-26T15:24:12.558Z,41.86
2017-11-26T15:26:41.489Z,42.43
2017-11-26T15:29:10.311Z,42.38
2017-11-26T15:31:39.023Z,42.40
2017-11-26T15:34:08.749Z,42.67
2017-11-26T15:36:37.691Z,41.89
2017-11-26T15:39:06.990Z,42.27
2017-11-26T15:41:35.864Z,42.61
2017-11-26T15:44:05.249Z,43.28
2017-11-26T15:46:34.233Z,43.05
2017-11-26T15:49:03.138Z,42.72
2017-11-26T15:51:31.802Z,43.22
2017-11-26T15:54:00.596Z,43.50
2017-11-26T15:56:30.184Z,44.64
2017-11-26T15:58:59.128Z,45.19
2017-11-26T16:01:28.108Z,43.49
2017-11-26T16:03:56.981Z,43.11
2017-11-26T16:06:25.900Z,43.41
2017-11-26T16:08:55.553Z,43.28
2017-11-26T16:11:24.377Z,43.51
2017-11-26T16:13:53.416Z,42.98
2017-11-26T16:16:22.168Z,42.99
2017-11-26T16:18:51.125Z,44.80
2017-11-26T16:21:20.728Z,42.77
2017-11-26T16:23:49.532Z,43.37
2017-11-26T16:26:18.361Z,43.88
2017-11-26T16:28:48.228Z,43.18
2017-11-26T16:31:17.100Z,42.52
2017-11-26T16:33:45.859Z,43.21
2017-11-26T16:36:15.036Z,42.48
2017-11-26T16:38:43.916Z,42.23
2017-11-26T16:41:13.212Z,44.01
2017-11-26T16:43:42.067Z,43.41
2017-11-26T16:46:10.875Z,41.81
2017-11-26T16:48:39.556Z,42.17
2017-11-26T16:51:08.550Z,42.53
2017-11-26T16:53:37.236Z,42.45
2017-11-26T16:56:06.147Z,40.58
2017-11-26T16:58:34.798Z,41.41
2017-11-26T17:01:03.771Z,41.54
2017-11-26T17:03:33.642Z,40.37
2017-11-26T17:06:02.455Z,41.61
2017-11-26T17:08:31.998Z,41.63
2017-11-26T17:11:01.010Z,41.44
2017-11-26T17:13:29.762Z,40.28
2017-11-26T17:15:59.432Z,40.79
2017-11-26T17:18:28.225Z,40.43
2017-11-26T17:20:57.748Z,39.60
2017-11-26T17:23:26.542Z,40.42
2017-11-26T17:25:55.263Z,40.35
2017-11-26T17:28:23.940Z,41.13
2017-11-26T17:30:53.460Z,38.56
2017-11-26T17:33:22.988Z,38.79
2017-11-26T17:35:51.786Z,40.59
2017-11-26T17:38:20.673Z,40.44
2017-11-26T17:40:50.307Z,39.63
2017-11-26T17:43:19.141Z,39.17
2017-11-26T17:45:48.796Z,40.42
2017-11-26T17:48:17.741Z,38.89
2017-11-26T17:50:46.668Z,39.33
2017-11-26T17:53:15.321Z,39.50
2017-11-26T17:55:44.177Z,39.22
2017-11-26T17:58:13.026Z,38.78
2017-11-26T18:00:41.777Z,39.15
2017-11-26T18:03:10.790Z,40.18
2017-11-26T18:05:40.115Z,39.23
2017-11-26T18:08:09.684Z,39.25
2017-11-26T18:10:38.387Z,39.56
2017-11-26T18:13:07.834Z,40.59
2017-11-26T18:15:36.693Z,39.93
2017-11-26T18:18:05.414Z,39.43
2017-11-26T18:20:35.323Z,38.77
2017-11-26T18:23:04.144Z,40.32
2017-11-26T18:25:33.804Z,39.72
2017-11-26T18:28:02.686Z,37.90
2017-11-26T18:30:32.174Z,39.94
2017-11-26T18:33:01.581Z,40.19
2017-11-26T18:35:30.435Z,41.93
2017-11-26T18:37:59.339Z,41.42
2017-11-26T18:40:28.070Z,41.41
2017-11-26T18:42:56.703Z,39.97
2017-11-26T18:45:25.514Z,41.41
2017-11-26T18:47:54.213Z,41.99
2017-11-26T18:50:23.611Z,41.55
2017-11-26T18:52:52.247Z,41.99
2017-11-26T18:55:21.103Z,41.90
2017-11-26T18:57:49.949Z,42.55
2017-11-26T19:00:19.449Z,41.08
2017-11-26T19:02:48.144Z,43.39
2017-11-26T19:05:17.706Z,41.37
2017-11-26T19:07:46.762Z,43.61
2017-11-26T19:10:16.275Z,43.52
2017-11-26T19:12:45.144Z,42.95
2017-11-26T19:15:14.549Z,43.27
2017-11-26T19:17:43.394Z,43.40
2017-11-26T19:20:12.577Z,44.31
2017-11-26T19:22:41.373Z,42.44
2017-11-26T19:25:10.134Z,43.68
2017-11-26T19:27:39.680Z,42.43
2017-11-26T19:30:08.563Z,44.78
2017-11-26T19:32:37.224Z,48.17
2017-11-26T19:35:06.160Z,47.69
2017-11-26T19:37:35.681Z,47.54
2017-11-26T19:40:04.458Z,43.82
2017-11-26T19:42:33.297Z,48.04
2017-11-26T19:45:02.039Z,45.21
2017-11-26T19:47:30.746Z,44.90
2017-11-26T19:49:59.933Z,46.14
2017-11-26T19:52:29.441Z,45.77
2017-11-26T19:54:58.347Z,45.76
2017-11-26T19:57:27.157Z,45.33
2017-11-26T19:59:55.926Z,44.59
2017-11-26T20:02:24.648Z,44.37
2017-11-26T20:04:53.462Z,43.75
2017-11-26T20:07:22.201Z,43.73
2017-11-26T20:09:51.076Z,43.46
2017-11-26T20:12:20.059Z,44.31
2017-11-26T20:14:48.776Z,44.09
2017-11-26T20:17:17.719Z,45.00
2017-11-26T20:19:46.820Z,43.58
2017-11-26T20:22:16.020Z,43.90
2017-11-26T20:24:45.872Z,43.53
2017-11-26T20:27:14.707Z,43.75
2017-11-26T20:29:43.920Z,44.38
2017-11-26T20:32:13.204Z,46.17
2017-11-26T20:34:42.040Z,46.54
2017-11-26T20:37:11.196Z,46.52
2017-11-26T20:39:40.945Z,45.92
2017-11-26T20:42:09.722Z,48.11
2017-11-26T20:44:38.603Z,47.15
2017-11-26T20:47:07.320Z,45.55
2017-11-26T20:49:36.619Z,44.02
2017-11-26T20:52:05.422Z,45.20
2017-11-26T20:54:34.145Z,46.09
2017-11-26T20:57:03.668Z,44.06
2017-11-26T20:59:32.409Z,44.41
2017-11-26T21:02:01.377Z,44.69
2017-11-26T21:04:30.074Z,44.39
2017-11-26T21:06:59.559Z,44.61
2017-11-26T21:09:28.368Z,45.58
2017-11-26T21:11:57.818Z,44.41
2017-11-26T21:14:26.592Z,44.06
2017-11-26T21:16:55.276Z,44.19
2017-11-26T21:19:24.347Z,43.63
2017-11-26T21:21:54.299Z,45.84
2017-11-26T21:24:23.858Z,46.93
2017-11-26T21:26:53.412Z,46.13
2017-11-26T21:29:22.551Z,48.17
2017-11-26T21:31:51.270Z,46.57
2017-11-26T21:34:20.094Z,45.24
2017-11-26T21:36:48.840Z,45.90
2017-11-26T21:39:17.526Z,46.23
2017-11-26T21:41:46.385Z,48.56
2017-11-26T21:44:16.284Z,47.26
2017-11-26T21:46:45.278Z,48.89
2017-11-26T21:49:14.825Z,50.21
2017-11-26T21:51:43.541Z,50.56
2017-11-26T21:54:12.837Z,48.02
2017-11-26T21:56:42.640Z,51.35
2017-11-26T21:59:11.385Z,49.84
2017-11-26T22:01:40.100Z,47.16
2017-11-26T22:04:09.136Z,48.90
2017-11-26T22:06:38.856Z,47.47
2017-11-26T22:09:07.615Z,48.12
2017-11-26T22:11:36.350Z,50.17
2017-11-26T22:14:05.045Z,47.31
2017-11-26T22:16:33.801Z,47.26
2017-11-26T22:19:02.579Z,47.68
2017-11-26T22:21:31.572Z,48.94
2017-11-26T22:24:00.411Z,49.05
2017-11-26T22:26:30.095Z,51.27
2017-11-26T22:28:58.736Z,49.33
2017-11-26T22:31:27.478Z,47.21
2017-11-26T22:33:56.106Z,44.69
2017-11-26T22:36:24.936Z,44.25
2017-11-26T22:38:54.451Z,44.86
2017-11-26T22:41:24.068Z,47.39
2017-11-26T22:43:52.928Z,49.24
2017-11-26T22:46:21.696Z,49.17
2017-11-26T22:48:50.625Z,51.01
2017-11-26T22:51:19.349Z,51.15
2017-11-26T22:53:48.257Z,52.04
2017-11-26T22:56:17.703Z,52.75
2017-11-26T22:58:46.648Z,55.25
2017-11-26T23:01:15.641Z,53.66
2017-11-26T23:03:51.798Z,48.76
2017-11-26T23:06:20.807Z,49.82
2017-11-26T23:08:49.588Z,52.31
2017-11-26T23:11:18.376Z,48.77
2017-11-26T23:13:47.871Z,48.53
2017-11-26T23:16:16.622Z,50.11
2017-11-26T23:18:45.411Z,50.84
2017-11-26T23:21:14.591Z,50.76
2017-11-26T23:23:43.622Z,49.45
2017-11-26T23:26:12.375Z,49.19
2017-11-26T23:28:41.359Z,50.75
2017-11-26T23:31:10.255Z,49.19
2017-11-26T23:33:39.762Z,50.66
2017-11-26T23:36:08.824Z,51.40
2017-11-26T23:38:37.460Z,49.49
2017-11-26T23:41:06.364Z,50.88
2017-11-26T23:43:35.334Z,52.06
2017-11-26T23:46:03.964Z,52.13
2017-11-26T23:48:32.669Z,54.30
2017-11-26T23:51:01.633Z,52.71
2017-11-26T23:53:30.385Z,52.00
2017-11-26T23:55:59.036Z,52.96
2017-11-26T23:58:27.771Z,52.50
